Time;durP1;ratioP1;P1;durP2;ratioP2;P2;SDS_P1;SDS_P2;PMS_P1;PMS_P2;Temp;Humidity;BMP_temperature;BMP_pressure;BME280_temperature;BME280_humidity;BME280_pressure;Samples;Min_cycle;Max_cycle;Signal;HPM_P1;HPM_P2
2021/07/16 07:53:00;;;;;;;15.57;5.07;;;18.60;99.90;;;;;;5385793;23;20052;-69
2021/07/16 07:55:26;;;;;;;18.67;5.63;;;18.70;99.90;;;;;;4963989;28;20040;-70
2021/07/16 07:57:54;;;;;;;15.15;4.80;;;18.70;99.90;;;;;;4905698;29;20028;-70
2021/07/16 08:00:22;;;;;;;15.38;4.55;;;18.80;99.90;;;;;;4892886;29;20024;-77
2021/07/16 08:02:47;;;;;;;19.77;5.10;;;18.80;99.90;;;;;;4892948;29;20025;-70
2021/07/16 08:05:14;;;;;;;20.00;4.85;;;18.90;99.90;;;;;;4892788;29;20041;-73
2021/07/16 08:07:42;;;;;;;16.88;5.35;;;19.10;99.90;;;;;;4892932;29;20028;-70
2021/07/16 08:10:13;;;;;;;21.05;4.95;;;19.10;99.90;;;;;;4958656;28;20033;-72
2021/07/16 08:12:40;;;;;;;15.27;4.90;;;19.10;99.90;;;;;;4877451;29;20037;-71
2021/07/16 08:15:07;;;;;;;16.73;4.90;;;19.30;99.90;;;;;;4872318;28;20033;-72
2021/07/16 08:17:33;;;;;;;21.27;4.90;;;19.30;99.90;;;;;;4938152;29;20021;-71
2021/07/16 08:19:59;;;;;;;15.45;4.43;;;19.30;99.90;;;;;;4941354;29;20025;-71
2021/07/16 08:22:25;;;;;;;18.33;5.30;;;19.40;99.90;;;;;;4875885;29;20036;-72
2021/07/16 08:24:50;;;;;;;13.63;4.93;;;19.70;99.90;;;;;;4876924;28;20032;-73
2021/07/16 08:27:16;;;;;;;15.65;5.28;;;19.80;99.90;;;;;;4876571;29;20040;-73
2021/07/16 08:29:42;;;;;;;14.90;5.40;;;20.10;99.90;;;;;;4940378;29;20029;-73
2021/07/16 08:32:08;;;;;;;18.38;4.75;;;20.20;99.90;;;;;;4876576;29;20504;-81
2021/07/16 08:34:34;;;;;;;14.45;4.47;;;20.40;99.90;;;;;;4940749;29;20052;-76
2021/07/16 08:37:00;;;;;;;15.23;5.15;;;20.60;99.90;;;;;;4876061;29;20021;-72
2021/07/16 08:39:25;;;;;;;19.45;5.18;;;20.70;99.90;;;;;;4940454;29;20033;-73
2021/07/16 08:41:52;;;;;;;14.90;4.75;;;21.00;99.90;;;;;;4903661;29;20021;-75
2021/07/16 08:44:18;;;;;;;19.50;5.65;;;21.20;99.90;;;;;;4913862;29;20039;-78
2021/07/16 08:46:45;;;;;;;23.70;5.97;;;21.50;99.90;;;;;;4886572;29;20491;-72
2021/07/16 08:49:12;;;;;;;17.45;5.75;;;21.60;99.90;;;;;;4893803;29;20020;-73
2021/07/16 08:51:38;;;;;;;23.75;5.75;;;21.80;99.90;;;;;;4894931;29;20037;-73
2021/07/16 08:54:04;;;;;;;16.65;4.90;;;21.80;99.90;;;;;;4894598;29;20052;-72
2021/07/16 08:56:36;;;;;;;16.55;4.45;;;21.70;99.90;;;;;;4894263;29;20420;-80
2021/07/16 08:59:05;;;;;;;18.02;4.57;;;21.60;99.90;;;;;;4992392;28;20025;-71
2021/07/16 09:01:31;;;;;;;21.80;5.00;;;21.70;99.90;;;;;;4959756;28;20017;-85
2021/07/16 09:04:05;;;;;;;19.50;5.32;;;21.80;99.90;;;;;;4894734;28;20484;-79
2021/07/16 09:06:47;;;;;;;15.48;5.03;;;22.00;99.90;;;;;;4893627;29;20389;-72
2021/07/16 09:09:15;;;;;;;17.58;5.82;;;22.10;99.90;;;;;;4913472;29;20028;-71
2021/07/16 09:11:42;;;;;;;14.77;5.20;;;22.20;99.90;;;;;;4978047;28;20544;-71
2021/07/16 09:14:41;;;;;;;17.25;4.90;;;22.40;99.70;;;;;;4977992;28;20396;-82
2021/07/16 09:17:10;;;;;;;12.68;4.53;;;22.40;99.50;;;;;;4973056;28;20063;-75
2021/07/16 09:19:39;;;;;;;14.60;4.70;;;22.30;99.60;;;;;;4914008;29;20077;-76
2021/07/16 09:22:10;;;;;;;13.95;4.30;;;22.20;99.90;;;;;;4978557;28;20024;-75
2021/07/16 09:24:37;;;;;;;17.27;5.57;;;22.10;99.90;;;;;;4974854;28;20031;-73
2021/07/16 09:27:30;;;;;;;18.42;5.40;;;22.00;99.90;;;;;;4894389;29;20269;-73
2021/07/16 09:30:26;;;;;;;18.25;5.60;;;21.90;99.90;;;;;;4883523;29;20021;-78
2021/07/16 09:33:05;;;;;;;12.75;4.82;;;21.90;99.90;;;;;;4876362;28;20029;-71
2021/07/16 09:35:41;;;;;;;17.90;5.00;;;21.80;99.90;;;;;;4876525;29;20537;-86
2021/07/16 09:38:09;;;;;;;17.05;5.22;;;21.50;99.90;;;;;;4875527;29;20033;-79
2021/07/16 09:40:40;;;;;;;17.98;5.15;;;21.10;99.90;;;;;;4940262;28;20088;-73
2021/07/16 09:43:09;;;;;;;18.80;5.07;;;20.80;99.90;;;;;;4935636;28;20025;-73
2021/07/16 09:45:36;;;;;;;16.50;4.68;;;20.60;99.90;;;;;;4875745;29;20071;-71
2021/07/16 09:48:33;;;;;;;12.93;4.47;;;20.70;99.90;;;;;;4879053;29;20100;-71
2021/07/16 09:51:21;;;;;;;18.55;5.47;;;20.70;99.90;;;;;;4879647;29;20032;-70
2021/07/16 09:53:49;;;;;;;14.23;4.72;;;20.60;99.90;;;;;;4878128;29;20408;-70
2021/07/16 09:56:18;;;;;;;16.02;5.05;;;20.50;99.90;;;;;;4879045;29;20049;-70
2021/07/16 09:58:44;;;;;;;18.20;5.55;;;20.30;99.90;;;;;;4880488;29;20009;-71
2021/07/16 10:01:10;;;;;;;13.70;5.05;;;20.10;99.90;;;;;;4878468;29;20479;-70
2021/07/16 10:03:38;;;;;;;17.75;5.18;;;19.90;99.90;;;;;;4877778;29;20025;-81
2021/07/16 10:06:05;;;;;;;17.05;5.25;;;19.90;99.90;;;;;;4877980;29;20032;-70
2021/07/16 10:08:33;;;;;;;21.05;5.47;;;19.70;99.90;;;;;;4877633;29;20035;-90
2021/07/16 10:11:02;;;;;;;19.98;5.45;;;19.60;99.90;;;;;;4941240;29;20421;-70
2021/07/16 10:13:30;;;;;;;21.25;6.22;;;19.50;99.90;;;;;;4876229;29;20139;-71
2021/07/16 10:15:56;;;;;;;15.98;5.47;;;19.50;99.90;;;;;;4941652;29;20115;-71
2021/07/16 10:18:22;;;;;;;20.80;5.68;;;19.60;99.90;;;;;;4877932;29;20022;-74
2021/07/16 10:20:48;;;;;;;14.93;4.75;;;19.70;99.90;;;;;;4878045;29;20025;-71
2021/07/16 10:23:15;;;;;;;20.27;6.10;;;19.70;99.90;;;;;;4942435;29;20057;-71
2021/07/16 10:25:40;;;;;;;18.48;4.75;;;19.60;99.90;;;;;;4880945;29;20029;-70
2021/07/16 10:28:06;;;;;;;17.38;5.60;;;19.50;99.90;;;;;;4880122;29;20029;-70
2021/07/16 10:30:37;;;;;;;15.85;5.53;;;19.40;99.90;;;;;;4879663;29;20096;-70
2021/07/16 10:33:03;;;;;;;;;;;19.40;99.90;;;;;;4943679;29;20128;-70
2021/07/16 10:35:36;;;;;;;19.98;5.97;;;19.30;99.90;;;;;;4943102;29;20328;-71
2021/07/16 10:38:23;;;;;;;18.33;4.95;;;19.30;99.90;;;;;;4879235;29;20036;-89
2021/07/16 10:40:49;;;;;;;16.33;4.93;;;19.30;99.90;;;;;;4942974;29;20029;-70
2021/07/16 10:43:27;;;;;;;18.92;5.45;;;19.40;99.90;;;;;;4926563;29;20031;-70
2021/07/16 10:45:53;;;;;;;21.13;5.65;;;19.40;99.90;;;;;;4943492;29;20363;-69
2021/07/16 10:48:29;;;;;;;22.30;5.95;;;19.40;99.90;;;;;;4877989;29;20033;-71
2021/07/16 10:50:55;;;;;;;16.75;5.28;;;19.60;99.90;;;;;;4878970;29;20024;-70
2021/07/16 10:53:29;;;;;;;19.85;5.72;;;19.80;99.90;;;;;;4878199;29;20080;-70
2021/07/16 10:55:54;;;;;;;17.80;6.13;;;20.20;99.90;;;;;;4942462;29;20029;-70
2021/07/16 10:58:30;;;;;;;21.08;6.45;;;20.40;99.90;;;;;;4878116;29;20131;-70
2021/07/16 11:00:57;;;;;;;23.60;6.22;;;20.50;99.90;;;;;;4878505;29;20029;-70
2021/07/16 11:03:45;;;;;;;17.85;5.95;;;20.50;99.90;;;;;;4877372;29;20485;-70
2021/07/16 11:06:15;;;;;;;16.20;5.43;;;20.40;99.90;;;;;;4942792;28;20506;-69
2021/07/16 11:08:41;;;;;;;15.40;5.15;;;20.30;99.90;;;;;;4942672;29;20037;-70
2021/07/16 11:11:17;;;;;;;15.07;5.32;;;20.10;99.90;;;;;;4877482;29;20029;-69
2021/07/16 11:13:54;;;;;;;15.13;5.15;;;20.10;99.90;;;;;;4878173;29;20072;-70
2021/07/16 11:16:34;;;;;;;18.20;5.72;;;20.20;99.90;;;;;;4878130;29;20108;-71
2021/07/16 11:19:07;;;;;;;15.75;5.70;;;20.30;99.90;;;;;;4942683;29;20043;-70
2021/07/16 11:21:48;;;;;;;19.73;5.57;;;20.40;99.90;;;;;;4878181;29;20056;-70
2021/07/16 11:24:17;;;;;;;19.05;5.20;;;20.60;99.90;;;;;;4941733;28;20041;-71
2021/07/16 11:27:09;;;;;;;20.02;6.07;;;20.90;99.90;;;;;;4878113;29;20048;-69
2021/07/16 11:29:35;;;;;;;20.20;6.25;;;21.10;99.90;;;;;;4942371;29;20048;-70
2021/07/16 11:32:13;;;;;;;22.15;6.80;;;21.20;99.90;;;;;;4877647;29;20025;-70
2021/07/16 11:34:52;;;;;;;16.35;5.22;;;21.10;99.90;;;;;;4877945;29;20498;-70
2021/07/16 11:37:31;;;;;;;19.08;6.28;;;20.90;99.90;;;;;;4877497;29;20488;-70
2021/07/16 11:40:04;;;;;;;14.75;6.40;;;20.80;99.90;;;;;;4877629;29;20033;-70
2021/07/16 11:42:31;;;;;;;19.17;5.28;;;20.90;99.90;;;;;;4877948;29;20028;-70
2021/07/16 11:44:57;;;;;;;14.88;5.15;;;20.90;99.90;;;;;;4877316;28;20445;-70
2021/07/16 11:47:25;;;;;;;20.50;6.35;;;21.00;99.90;;;;;;4877584;29;20115;-70
2021/07/16 11:49:59;;;;;;;17.52;4.93;;;21.20;99.90;;;;;;4877854;29;20525;-75
2021/07/16 11:52:27;;;;;;;16.70;4.78;;;21.50;99.90;;;;;;4876562;29;20033;-70
2021/07/16 11:55:01;;;;;;;19.88;5.10;;;21.80;99.90;;;;;;4877704;29;20037;-70
2021/07/16 11:57:26;;;;;;;23.20;5.93;;;22.20;99.90;;;;;;4941557;29;20029;-70
2021/07/16 11:59:53;;;;;;;18.30;5.32;;;22.70;99.90;;;;;;4941450;28;20469;-69
2021/07/16 12:02:20;;;;;;;13.93;4.57;;;23.00;99.90;;;;;;4877755;29;20532;-71
2021/07/16 12:04:48;;;;;;;14.18;5.30;;;23.30;99.90;;;;;;4942367;28;20378;-69
2021/07/16 12:07:15;;;;;;;21.40;5.72;;;23.60;99.90;;;;;;4941072;29;20029;-70
2021/07/16 12:09:44;;;;;;;16.50;5.45;;;23.70;99.90;;;;;;4941916;28;20052;-71
2021/07/16 12:12:11;;;;;;;17.92;5.80;;;23.40;99.80;;;;;;4877377;29;20024;-70
2021/07/16 12:14:54;;;;;;;20.75;5.50;;;23.20;99.90;;;;;;4941028;28;20037;-70
2021/07/16 12:17:25;;;;;;;14.65;4.88;;;22.90;99.90;;;;;;4877243;29;20025;-71
2021/07/16 12:19:51;;;;;;;18.88;5.90;;;22.80;99.90;;;;;;4877105;29;20084;-70
2021/07/16 12:22:21;;;;;;;17.75;5.63;;;22.40;99.90;;;;;;4877095;29;20450;-71
2021/07/16 12:24:47;;;;;;;17.88;5.68;;;22.00;99.90;;;;;;4877422;29;20025;-71
2021/07/16 12:27:14;;;;;;;19.60;5.50;;;21.80;99.90;;;;;;4876367;29;20473;-71
2021/07/16 12:29:40;;;;;;;20.40;5.47;;;21.80;99.90;;;;;;4877369;29;20029;-72
2021/07/16 12:32:07;;;;;;;16.67;5.47;;;21.80;99.90;;;;;;4941283;29;20025;-73
2021/07/16 12:34:33;;;;;;;17.70;5.68;;;22.10;99.90;;;;;;4940344;28;20044;-74
2021/07/16 12:37:14;;;;;;;16.08;5.60;;;22.40;99.90;;;;;;4877173;29;20025;-73
2021/07/16 12:39:42;;;;;;;15.57;4.95;;;22.50;99.90;;;;;;4877181;29;20114;-72
2021/07/16 12:42:17;;;;;;;17.15;5.50;;;22.50;99.90;;;;;;4876209;29;20021;-73
2021/07/16 12:45:04;;;;;;;18.88;5.00;;;22.40;99.90;;;;;;4876798;29;20030;-73
2021/07/16 12:47:30;;;;;;;15.35;5.10;;;22.30;99.90;;;;;;4876056;29;20036;-74
2021/07/16 12:50:10;;;;;;;19.67;6.13;;;22.20;99.90;;;;;;4876297;29;20061;-73
2021/07/16 12:52:37;;;;;;;20.52;5.20;;;22.10;99.90;;;;;;4877858;29;20068;-74
2021/07/16 12:55:34;;;;;;;15.38;5.13;;;22.20;99.90;;;;;;4961992;28;20520;-72
2021/07/16 12:58:04;;;;;;;13.88;4.97;;;22.50;99.90;;;;;;4911621;28;20067;-72
2021/07/16 13:00:31;;;;;;;16.50;5.30;;;22.70;99.90;;;;;;4963286;28;20025;-76
2021/07/16 13:03:17;;;;;;;18.73;5.68;;;22.80;99.90;;;;;;4959006;28;20075;-73
2021/07/16 13:05:43;;;;;;;16.92;5.93;;;22.90;99.90;;;;;;4895127;28;20112;-73
2021/07/16 13:08:16;;;;;;;19.02;6.63;;;22.90;99.90;;;;;;4894961;28;20025;-73
2021/07/16 13:10:56;;;;;;;20.40;5.40;;;22.70;99.90;;;;;;4894117;28;20115;-72
2021/07/16 13:13:33;;;;;;;19.20;5.73;;;22.60;99.90;;;;;;4875897;28;20044;-73
2021/07/16 13:16:13;;;;;;;13.25;5.00;;;22.60;99.90;;;;;;4876197;29;20041;-73
2021/07/16 13:18:41;;;;;;;13.40;5.07;;;22.60;99.90;;;;;;4940009;28;20037;-75
2021/07/16 13:21:08;;;;;;;17.35;5.85;;;22.70;99.90;;;;;;4875725;29;20028;-73
2021/07/16 13:23:35;;;;;;;13.63;4.93;;;22.90;99.90;;;;;;4939510;29;20265;-72
2021/07/16 13:26:02;;;;;;;13.77;5.20;;;23.20;99.90;;;;;;4876067;29;20032;-72
2021/07/16 13:28:27;;;;;;;15.68;5.50;;;23.30;99.90;;;;;;4876235;29;20052;-73
2021/07/16 13:30:53;;;;;;;15.68;5.55;;;23.60;99.90;;;;;;4875348;29;20469;-73
2021/07/16 13:33:18;;;;;;;17.52;5.82;;;23.90;99.50;;;;;;4875715;29;20367;-74
2021/07/16 13:35:44;;;;;;;15.13;5.38;;;24.00;99.10;;;;;;4876195;29;20061;-74
2021/07/16 13:38:09;;;;;;;17.67;6.07;;;23.90;98.70;;;;;;4875330;29;20111;-81
2021/07/16 13:40:35;;;;;;;17.13;6.60;;;23.80;99.00;;;;;;4875765;29;20565;-70
2021/07/16 13:43:01;;;;;;;19.08;5.32;;;23.70;98.90;;;;;;4876142;29;20025;-73
2021/07/16 13:45:26;;;;;;;14.85;5.28;;;23.80;98.70;;;;;;4955133;28;20358;-75
2021/07/16 13:47:52;;;;;;;15.10;5.10;;;23.90;98.40;;;;;;4880674;29;20027;-82
2021/07/16 13:50:17;;;;;;;14.13;5.60;;;23.80;98.40;;;;;;4894816;29;20460;-71
2021/07/16 13:52:43;;;;;;;24.20;5.30;;;23.60;98.50;;;;;;4894164;29;20045;-74
2021/07/16 13:55:09;;;;;;;15.23;5.55;;;23.40;98.90;;;;;;4894142;29;20480;-71
2021/07/16 13:57:35;;;;;;;15.93;5.30;;;23.20;99.70;;;;;;4894319;29;20033;-71
2021/07/16 14:00:06;;;;;;;16.05;5.05;;;23.00;99.90;;;;;;4958376;28;20120;-71
2021/07/16 14:02:32;;;;;;;20.52;5.35;;;22.70;99.90;;;;;;4894201;28;20064;-70
2021/07/16 14:04:57;;;;;;;13.95;4.97;;;22.70;99.90;;;;;;4958831;28;20438;-77
2021/07/16 14:07:23;;;;;;;15.07;4.88;;;22.70;99.90;;;;;;4893263;29;20185;-71
2021/07/16 14:09:49;;;;;;;23.30;11.35;;;22.80;99.90;;;;;;4894270;29;20028;-70
2021/07/16 14:12:14;;;;;;;16.98;6.97;;;22.90;99.90;;;;;;4893703;29;20078;-71
2021/07/16 14:14:42;;;;;;;18.73;6.22;;;23.10;99.90;;;;;;4893332;29;20606;-70
2021/07/16 14:17:08;;;;;;;16.85;5.57;;;23.30;99.90;;;;;;4894112;29;20079;-71
2021/07/16 14:19:34;;;;;;;15.05;4.93;;;23.50;99.10;;;;;;4893438;29;20440;-69
2021/07/16 14:22:00;;;;;;;17.83;5.70;;;23.90;98.40;;;;;;4958631;28;20021;-71
2021/07/16 14:24:25;;;;;;;20.42;5.93;;;24.10;98.50;;;;;;4893548;29;20036;-75
2021/07/16 14:26:51;;;;;;;17.60;5.43;;;24.30;98.20;;;;;;4893400;28;20039;-73
2021/07/16 14:29:17;;;;;;;16.75;5.40;;;24.20;97.20;;;;;;4893875;29;20389;-71
2021/07/16 14:31:42;;;;;;;15.57;5.05;;;24.10;98.00;;;;;;4958789;28;20025;-72
2021/07/16 14:34:08;;;;;;;17.88;6.05;;;24.00;98.10;;;;;;4893561;29;20049;-90
2021/07/16 14:36:34;;;;;;;14.23;4.78;;;23.90;97.70;;;;;;4893641;29;20506;-71
2021/07/16 14:39:00;;;;;;;13.73;5.22;;;23.80;98.30;;;;;;4958497;28;20079;-83
2021/07/16 14:41:26;;;;;;;18.02;6.15;;;23.70;98.70;;;;;;4957270;28;20025;-75
2021/07/16 14:43:52;;;;;;;14.18;5.10;;;23.60;98.40;;;;;;4893966;29;20115;-87
2021/07/16 14:46:17;;;;;;;16.48;5.63;;;23.40;99.00;;;;;;4893454;29;20057;-73
2021/07/16 14:48:43;;;;;;;12.85;5.38;;;23.30;99.20;;;;;;4946258;28;20052;-77
2021/07/16 14:51:10;;;;;;;14.57;5.35;;;23.10;99.60;;;;;;4939103;29;20032;-72
2021/07/16 14:53:35;;;;;;;21.55;6.22;;;23.00;99.90;;;;;;4938751;29;20064;-84
2021/07/16 14:56:01;;;;;;;12.18;5.20;;;23.10;99.90;;;;;;4938456;29;20186;-78
2021/07/16 14:58:26;;;;;;;18.38;5.38;;;23.30;99.70;;;;;;4874650;29;20033;-78
2021/07/16 15:00:52;;;;;;;16.27;6.10;;;23.60;99.30;;;;;;4939213;29;20021;-77
2021/07/16 15:03:17;;;;;;;16.90;5.38;;;23.60;98.80;;;;;;4870075;28;20025;-86
2021/07/16 15:05:43;;;;;;;14.65;5.47;;;23.60;98.70;;;;;;4872131;29;20485;-71
2021/07/16 15:08:09;;;;;;;16.10;5.57;;;23.60;98.90;;;;;;4935592;29;20033;-71
2021/07/16 15:10:34;;;;;;;17.30;5.63;;;23.60;99.20;;;;;;4935312;28;20025;-76
2021/07/16 15:13:00;;;;;;;19.23;8.35;;;23.50;99.20;;;;;;4874534;29;20038;-71
2021/07/16 15:15:26;;;;;;;21.85;8.20;;;23.50;99.10;;;;;;4874377;28;20438;-71
2021/07/16 15:17:51;;;;;;;22.30;7.03;;;23.50;99.20;;;;;;4873797;29;20037;-86
2021/07/16 15:20:18;;;;;;;18.58;5.65;;;23.50;99.10;;;;;;4873604;29;20556;-85
2021/07/16 15:22:45;;;;;;;17.35;6.13;;;23.30;99.50;;;;;;4938182;29;20086;-71
2021/07/16 15:25:11;;;;;;;18.48;6.93;;;23.20;99.70;;;;;;4938529;29;20037;-72
2021/07/16 15:27:37;;;;;;;20.15;7.38;;;23.10;99.80;;;;;;4891355;29;20557;-88
2021/07/16 15:30:05;;;;;;;13.50;6.55;;;22.90;99.90;;;;;;4892231;29;20037;-72
2021/07/16 15:32:30;;;;;;;23.10;7.50;;;22.90;99.90;;;;;;4957969;28;20032;-73
2021/07/16 15:34:56;;;;;;;20.75;6.40;;;22.90;99.90;;;;;;4892785;29;20053;-73
2021/07/16 15:37:21;;;;;;;16.42;5.53;;;22.90;99.90;;;;;;4957024;28;20517;-73
2021/07/16 15:39:47;;;;;;;21.85;8.40;;;23.00;99.90;;;;;;4893346;29;20036;-72
2021/07/16 15:42:12;;;;;;;20.25;7.00;;;23.00;99.90;;;;;;4892479;29;20033;-78
2021/07/16 15:44:38;;;;;;;16.92;6.40;;;22.90;99.90;;;;;;4956828;28;20040;-76
2021/07/16 15:47:04;;;;;;;19.65;6.47;;;22.90;99.90;;;;;;4892730;29;20039;-75
2021/07/16 15:49:29;;;;;;;22.92;6.72;;;22.90;99.90;;;;;;4956402;28;20034;-75
2021/07/16 15:51:55;;;;;;;21.25;6.50;;;23.00;99.90;;;;;;4971729;28;20110;-69
2021/07/16 15:54:21;;;;;;;18.35;6.68;;;23.00;99.90;;;;;;4971010;28;20061;-69
2021/07/16 15:56:46;;;;;;;18.92;5.32;;;22.90;99.90;;;;;;4954759;28;20018;-69
2021/07/16 15:59:12;;;;;;;18.83;6.65;;;22.90;99.90;;;;;;4949907;28;20469;-72
2021/07/16 16:01:38;;;;;;;17.92;5.60;;;22.90;99.90;;;;;;4957871;28;20041;-76
2021/07/16 16:04:03;;;;;;;20.42;6.32;;;22.90;99.90;;;;;;4893037;29;20068;-72
2021/07/16 16:06:29;;;;;;;17.98;6.50;;;22.90;99.90;;;;;;4892165;29;20033;-90
2021/07/16 16:08:54;;;;;;;23.20;6.47;;;22.80;99.90;;;;;;4957555;28;20036;-84
2021/07/16 16:11:20;;;;;;;15.70;5.60;;;22.80;99.90;;;;;;4956938;28;20037;-72
2021/07/16 16:13:46;;;;;;;18.10;6.30;;;22.60;99.90;;;;;;4892270;29;20037;-72
2021/07/16 16:16:12;;;;;;;19.15;6.45;;;22.50;99.90;;;;;;4957356;28;20514;-73
2021/07/16 16:18:37;;;;;;;17.55;5.80;;;22.40;99.90;;;;;;4892140;29;20087;-72
2021/07/16 16:21:05;;;;;;;21.48;7.05;;;22.30;99.90;;;;;;4956663;28;20024;-69
2021/07/16 16:23:32;;;;;;;22.83;7.70;;;22.10;99.90;;;;;;4955660;28;20032;-72
2021/07/16 16:26:00;;;;;;;19.95;8.13;;;22.10;99.90;;;;;;4892083;29;20033;-77
2021/07/16 16:28:25;;;;;;;18.88;8.13;;;22.00;99.90;;;;;;4891858;29;20035;-72
2021/07/16 16:30:51;;;;;;;16.25;6.85;;;21.90;99.90;;;;;;4892186;29;20036;-72
2021/07/16 16:33:17;;;;;;;20.33;6.70;;;21.90;99.90;;;;;;4955897;28;20547;-73
2021/07/16 16:35:43;;;;;;;25.45;8.07;;;22.00;99.90;;;;;;4956813;28;20372;-86
2021/07/16 16:38:09;;;;;;;21.35;8.82;;;22.10;99.90;;;;;;4956823;28;20488;-74
2021/07/16 16:40:36;;;;;;;19.98;8.63;;;22.10;99.90;;;;;;4955867;28;20035;-73
2021/07/16 16:43:03;;;;;;;19.52;7.90;;;22.20;99.90;;;;;;4892176;29;20057;-70
2021/07/16 16:45:29;;;;;;;19.38;6.93;;;22.20;99.90;;;;;;4891858;29;20025;-78
2021/07/16 16:47:55;;;;;;;16.75;6.18;;;22.10;99.90;;;;;;4912492;28;20018;-85
2021/07/16 16:50:20;;;;;;;21.00;7.80;;;22.10;99.90;;;;;;4926652;28;20495;-70
2021/07/16 16:52:46;;;;;;;22.10;7.10;;;22.00;99.90;;;;;;4910663;29;20489;-83
2021/07/16 16:55:15;;;;;;;17.60;7.18;;;21.90;99.90;;;;;;4909380;28;20071;-74
2021/07/16 16:57:41;;;;;;;19.52;6.72;;;21.70;99.90;;;;;;4975738;28;20028;-72
2021/07/16 17:00:10;;;;;;;30.73;7.78;;;21.70;99.90;;;;;;4910582;29;20043;-85
2021/07/16 17:02:36;;;;;;;19.92;6.82;;;21.60;99.90;;;;;;4910158;29;20469;-73
2021/07/16 17:05:02;;;;;;;21.30;7.32;;;21.60;99.90;;;;;;4910499;29;20031;-82
2021/07/16 17:07:27;;;;;;;16.60;6.32;;;21.50;99.90;;;;;;4975107;28;20032;-73
2021/07/16 17:09:53;;;;;;;22.52;7.68;;;21.40;99.90;;;;;;4975091;28;20028;-72
2021/07/16 17:12:18;;;;;;;21.52;7.13;;;21.40;99.90;;;;;;4910712;29;20493;-81
2021/07/16 17:14:44;;;;;;;17.15;6.40;;;21.40;99.90;;;;;;4975243;28;20880;-80
2021/07/16 17:17:12;;;;;;;28.90;6.93;;;21.30;99.90;;;;;;4975234;28;20076;-79
2021/07/16 17:19:37;;;;;;;18.25;6.60;;;21.30;99.90;;;;;;4958910;28;20036;-79
2021/07/16 17:22:03;;;;;;;18.88;6.38;;;21.20;99.90;;;;;;4975652;28;20025;-82
2021/07/16 17:24:29;;;;;;;21.67;7.78;;;21.10;99.90;;;;;;4974235;28;20028;-79
2021/07/16 17:26:54;;;;;;;21.23;6.63;;;21.00;99.90;;;;;;4975408;28;20388;-79
2021/07/16 17:29:25;;;;;;;12.35;6.25;;;20.90;99.90;;;;;;4974385;28;20024;-82
2021/07/16 17:31:51;;;;;;;21.33;6.85;;;20.90;99.90;;;;;;4975638;28;20059;-79
2021/07/16 17:34:16;;;;;;;15.60;6.38;;;20.90;99.90;;;;;;4974161;28;20036;-79
2021/07/16 17:36:43;;;;;;;18.75;7.13;;;20.90;99.90;;;;;;4909943;29;20473;-82
2021/07/16 17:39:11;;;;;;;19.65;7.50;;;20.90;99.90;;;;;;4975107;28;20034;-81
2021/07/16 17:41:37;;;;;;;18.17;6.47;;;20.90;99.90;;;;;;4975342;28;20035;-82
2021/07/16 17:44:04;;;;;;;24.52;9.18;;;20.90;99.90;;;;;;4974044;28;20032;-82
2021/07/16 17:46:30;;;;;;;24.77;10.48;;;20.90;99.90;;;;;;4974825;28;20130;-83
2021/07/16 17:48:56;;;;;;;21.00;9.77;;;20.80;99.90;;;;;;4961891;28;20803;-82
2021/07/16 17:51:22;;;;;;;21.08;8.20;;;20.80;99.90;;;;;;4954803;28;20043;-79
2021/07/16 17:53:47;;;;;;;21.67;7.68;;;20.70;99.90;;;;;;4968749;28;20518;-81
2021/07/16 17:56:13;;;;;;;21.52;7.22;;;20.80;99.90;;;;;;4968113;28;20023;-82
2021/07/16 17:58:39;;;;;;;21.77;7.50;;;20.70;99.90;;;;;;4968142;28;20170;-80
2021/07/16 18:01:05;;;;;;;21.00;7.50;;;20.60;99.90;;;;;;4968541;28;20031;-83
2021/07/16 18:03:31;;;;;;;22.48;7.43;;;20.50;99.90;;;;;;4968832;28;20035;-73
2021/07/16 18:05:56;;;;;;;26.83;7.70;;;20.50;99.90;;;;;;4968138;28;20029;-73
2021/07/16 18:08:22;;;;;;;23.73;7.28;;;20.40;99.90;;;;;;4969347;28;20288;-70
2021/07/16 18:10:47;;;;;;;20.63;8.23;;;20.30;99.90;;;;;;4970015;28;20475;-72
2021/07/16 18:13:13;;;;;;;19.13;6.93;;;20.30;99.90;;;;;;4968728;28;20503;-72
2021/07/16 18:15:39;;;;;;;18.90;7.85;;;20.30;99.90;;;;;;4968260;28;20027;-72
2021/07/16 18:18:07;;;;;;;16.00;6.82;;;20.20;99.90;;;;;;4969485;28;20023;-70
2021/07/16 18:20:33;;;;;;;18.08;6.75;;;20.20;99.90;;;;;;4967851;28;20038;-76
2021/07/16 18:22:59;;;;;;;29.77;10.05;;;20.20;99.90;;;;;;4969707;28;20064;-70
2021/07/16 18:25:25;;;;;;;21.98;7.03;;;20.10;99.90;;;;;;4967704;28;20070;-73
2021/07/16 18:27:50;;;;;;;20.55;6.88;;;20.10;99.90;;;;;;4969274;28;20055;-70
2021/07/16 18:30:16;;;;;;;22.85;8.40;;;20.10;99.90;;;;;;4967709;28;20033;-82
2021/07/16 18:32:47;;;;;;;19.83;8.13;;;20.00;99.90;;;;;;4967817;28;20023;-70
2021/07/16 18:35:14;;;;;;;19.88;7.65;;;20.00;99.90;;;;;;4969175;28;20507;-72
2021/07/16 18:37:40;;;;;;;19.58;7.47;;;20.00;99.90;;;;;;4969597;28;20026;-71
2021/07/16 18:40:06;;;;;;;24.02;8.23;;;19.90;99.90;;;;;;4967677;28;20031;-84
2021/07/16 18:42:32;;;;;;;23.40;9.32;;;19.90;99.90;;;;;;4969695;28;20037;-71
2021/07/16 18:44:58;;;;;;;19.65;8.40;;;19.90;99.90;;;;;;4969551;28;20030;-71
2021/07/16 18:47:24;;;;;;;22.80;8.18;;;19.80;99.90;;;;;;4970947;28;20300;-72
2021/07/16 18:49:50;;;;;;;16.25;6.80;;;19.80;99.90;;;;;;4953203;29;20019;-82
2021/07/16 18:52:16;;;;;;;18.38;9.68;;;19.80;99.90;;;;;;4948833;28;20033;-75
2021/07/16 18:54:42;;;;;;;22.88;9.73;;;19.80;99.90;;;;;;4874212;28;20120;-74
2021/07/16 18:57:08;;;;;;;18.67;8.35;;;19.70;99.90;;;;;;4875097;28;20029;-74
2021/07/16 18:59:34;;;;;;;19.30;7.20;;;19.70;99.90;;;;;;4939301;29;20033;-72
2021/07/16 19:01:59;;;;;;;23.70;8.32;;;19.60;99.90;;;;;;4874714;28;20540;-72
2021/07/16 19:04:25;;;;;;;23.27;7.32;;;19.60;99.90;;;;;;4874866;28;20048;-73
2021/07/16 19:06:51;;;;;;;23.60;10.20;;;19.60;99.90;;;;;;4874932;28;20095;-81
2021/07/16 19:09:16;;;;;;;32.25;16.33;;;19.50;99.90;;;;;;4938565;29;20028;-73
2021/07/16 19:11:42;;;;;;;31.10;16.20;;;19.40;99.90;;;;;;4875324;28;20076;-70
2021/07/16 19:14:08;;;;;;;23.85;10.32;;;19.40;99.90;;;;;;4938926;29;20505;-74
2021/07/16 19:16:33;;;;;;;17.33;7.95;;;19.40;99.90;;;;;;4938018;29;20037;-83
2021/07/16 19:18:59;;;;;;;20.50;8.32;;;19.40;99.90;;;;;;4939420;29;20040;-71
2021/07/16 19:21:25;;;;;;;18.65;7.72;;;19.40;99.90;;;;;;4874679;28;20041;-71
2021/07/16 19:23:51;;;;;;;14.32;6.57;;;19.40;99.90;;;;;;4938883;29;20025;-71
2021/07/16 19:26:18;;;;;;;22.65;7.90;;;19.30;99.90;;;;;;4874147;29;20033;-84
2021/07/16 19:28:43;;;;;;;20.10;7.25;;;19.30;99.90;;;;;;4875038;28;20659;-72
2021/07/16 19:31:09;;;;;;;19.17;7.07;;;19.20;99.90;;;;;;4873426;29;20104;-73
2021/07/16 19:33:35;;;;;;;19.23;7.07;;;19.20;99.90;;;;;;4938724;29;20041;-73
2021/07/16 19:36:01;;;;;;;19.00;7.88;;;19.20;99.90;;;;;;4874188;28;20088;-72
2021/07/16 19:38:26;;;;;;;18.25;7.20;;;19.10;99.90;;;;;;4874178;28;20052;-75
2021/07/16 19:40:52;;;;;;;21.58;8.05;;;19.20;99.90;;;;;;4938750;29;20033;-73
2021/07/16 19:43:17;;;;;;;27.52;7.32;;;19.10;99.90;;;;;;4873318;29;20040;-72
2021/07/16 19:45:43;;;;;;;15.63;7.07;;;19.20;99.90;;;;;;4874197;29;20418;-73
2021/07/16 19:48:09;;;;;;;19.80;8.48;;;19.10;99.90;;;;;;4945090;28;20029;-73
2021/07/16 19:50:35;;;;;;;27.67;8.45;;;19.00;99.90;;;;;;4957052;28;20035;-73
2021/07/16 19:53:01;;;;;;;20.85;8.57;;;19.00;99.90;;;;;;4957313;28;20052;-70
2021/07/16 19:55:27;;;;;;;15.85;7.18;;;19.00;99.90;;;;;;4956958;28;20045;-73
2021/07/16 19:57:52;;;;;;;23.23;8.15;;;19.00;99.90;;;;;;4956770;28;20083;-70
2021/07/16 20:00:20;;;;;;;19.17;7.63;;;19.00;99.90;;;;;;4892648;29;20033;-72
2021/07/16 20:02:49;;;;;;;20.13;7.53;;;18.90;99.90;;;;;;4893020;29;20115;-71
2021/07/16 20:05:17;;;;;;;17.70;7.40;;;18.90;99.90;;;;;;4892122;29;20392;-72
2021/07/16 20:07:43;;;;;;;20.02;7.82;;;18.80;99.90;;;;;;4957178;28;20103;-71
2021/07/16 20:10:09;;;;;;;22.63;8.20;;;18.80;99.90;;;;;;4957767;28;20424;-71
2021/07/16 20:12:35;;;;;;;21.45;8.95;;;18.80;99.90;;;;;;4892235;29;20036;-71
2021/07/16 20:15:01;;;;;;;21.90;8.45;;;18.80;99.90;;;;;;4958223;28;20037;-73
2021/07/16 20:17:26;;;;;;;22.75;8.20;;;18.80;99.90;;;;;;4895660;29;20031;-73
2021/07/16 20:19:52;;;;;;;19.23;7.82;;;18.70;99.90;;;;;;4960495;28;20061;-73
2021/07/16 20:22:24;;;;;;;17.08;7.63;;;18.70;99.90;;;;;;4895873;29;20036;-73
2021/07/16 20:24:51;;;;;;;19.38;7.20;;;18.60;99.90;;;;;;4896071;29;20025;-85
2021/07/16 20:27:18;;;;;;;26.67;8.75;;;18.60;99.90;;;;;;4895213;29;20425;-72
2021/07/16 20:29:45;;;;;;;19.77;7.93;;;18.50;99.90;;;;;;4960800;28;20488;-73
2021/07/16 20:32:11;;;;;;;19.85;7.35;;;18.50;99.90;;;;;;4959906;28;20355;-70